createdAt,value
2022-10-30T00:02:15.522Z,0.32
2022-10-30T00:04:45.726Z,0.75
2022-10-30T00:07:15.859Z,0.95
2022-10-30T00:09:46.065Z,0.28
2022-10-30T00:12:16.265Z,0.77
2022-10-30T00:14:46.411Z,2.20
2022-10-30T00:17:16.609Z,0.95
2022-10-30T00:19:49.275Z,0.22
2022-10-30T00:22:19.507Z,1.23
2022-10-30T00:24:49.720Z,0.40
2022-10-30T00:27:20.219Z,0.70
2022-10-30T00:29:50.427Z,0.28
2022-10-30T00:32:20.602Z,0.40
2022-10-30T00:34:50.844Z,0.73
2022-10-30T00:37:21.054Z,0.77
2022-10-30T00:39:51.290Z,2.03
2022-10-30T00:42:21.480Z,0.63
2022-10-30T00:44:54.684Z,0.10
2022-10-30T00:48:02.653Z,0.32
2022-10-30T00:50:37.658Z,1.08
2022-10-30T00:53:16.217Z,0.47
2022-10-30T00:55:54.549Z,1.70
2022-10-30T00:58:33.181Z,0.17
2022-10-30T01:01:07.796Z,0.20
2022-10-30T01:03:39.628Z,0.10
2022-10-30T01:06:13.883Z,0.82
2022-10-30T01:08:45.283Z,5.43
2022-10-30T01:11:15.800Z,0.68
2022-10-30T01:13:51.409Z,0.28
2022-10-30T01:16:43.674Z,2.85
2022-10-30T01:19:52.278Z,1.77
2022-10-30T01:22:51.478Z,2.15
2022-10-30T01:25:53.798Z,0.50
2022-10-30T01:28:44.301Z,0.50
2022-10-30T01:31:14.725Z,0.20
2022-10-30T01:34:09.022Z,0.30
2022-10-30T01:37:00.447Z,0.13
2022-10-30T01:39:36.075Z,1.23
2022-10-30T01:42:30.963Z,0.10
2022-10-30T01:45:01.603Z,1.85
2022-10-30T01:48:09.361Z,1.38
2022-10-30T01:50:42.516Z,0.60
2022-10-30T01:53:15.796Z,0.10
2022-10-30T01:55:53.898Z,0.55
2022-10-30T01:58:24.101Z,1.98
2022-10-30T02:00:59.102Z,0.68
2022-10-30T02:03:30.654Z,4.22
2022-10-30T02:06:01.428Z,0.60
2022-10-30T02:08:32.276Z,2.15
2022-10-30T02:11:02.551Z,0.65
2022-10-30T02:13:33.330Z,0.85
2022-10-30T02:16:03.712Z,0.50
2022-10-30T02:18:33.991Z,0.80
2022-10-30T02:21:04.434Z,1.27
2022-10-30T02:23:34.847Z,0.52
2022-10-30T02:26:05.301Z,1.00
2022-10-30T02:28:36.104Z,0.70
2022-10-30T02:31:06.365Z,3.38
2022-10-30T02:33:36.644Z,1.30
2022-10-30T02:36:07.008Z,1.90
2022-10-30T02:38:43.055Z,4.22
2022-10-30T02:41:13.769Z,5.25
2022-10-30T02:43:44.275Z,3.78
2022-10-30T02:46:14.473Z,5.10
2022-10-30T02:48:44.907Z,5.57
2022-10-30T02:51:15.088Z,4.53
2022-10-30T02:53:45.421Z,7.20
2022-10-30T02:56:16.761Z,8.65
2022-10-30T02:58:47.241Z,5.68
2022-10-30T03:01:20.103Z,5.93
2022-10-30T03:03:50.542Z,5.35
2022-10-30T03:06:21.058Z,4.38
2022-10-30T03:08:51.399Z,5.22
2022-10-30T03:11:23.137Z,8.40
2022-10-30T03:13:53.722Z,7.32
2022-10-30T03:16:26.248Z,5.07
2022-10-30T03:18:56.548Z,4.22
2022-10-30T03:21:28.414Z,6.95
2022-10-30T03:23:58.967Z,6.05
2022-10-30T03:26:29.619Z,6.78
2022-10-30T03:29:01.594Z,8.93
2022-10-30T03:31:34.308Z,7.72
2022-10-30T03:34:04.703Z,4.80
2022-10-30T03:36:34.936Z,7.82
2022-10-30T03:39:05.373Z,4.22
2022-10-30T03:41:35.610Z,4.30
2022-10-30T03:44:05.842Z,4.57
2022-10-30T03:46:36.014Z,5.65
2022-10-30T03:49:06.236Z,4.35
2022-10-30T03:51:36.443Z,3.65
2022-10-30T03:54:06.668Z,2.92
2022-10-30T03:56:36.824Z,3.80
2022-10-30T03:59:07.015Z,5.78
2022-10-30T04:01:37.441Z,6.03
2022-10-30T04:04:07.744Z,4.82
2022-10-30T04:06:37.990Z,6.28
2022-10-30T04:09:08.122Z,6.55
2022-10-30T04:11:38.424Z,4.53
2022-10-30T04:14:08.667Z,5.03
2022-10-30T04:16:38.963Z,2.63
2022-10-30T04:19:09.345Z,4.85
2022-10-30T04:21:40.074Z,2.70
2022-10-30T04:24:10.414Z,3.58
2022-10-30T04:26:40.874Z,3.80
2022-10-30T04:29:11.019Z,5.07
2022-10-30T04:31:41.303Z,4.63
2022-10-30T04:34:11.611Z,2.40
2022-10-30T04:36:41.848Z,3.33
2022-10-30T04:39:12.787Z,3.03
2022-10-30T04:41:43.026Z,1.85
2022-10-30T04:44:13.232Z,2.92
2022-10-30T04:46:43.540Z,3.70
2022-10-30T04:49:13.706Z,3.58
2022-10-30T04:51:43.906Z,3.90
2022-10-30T04:54:14.533Z,3.22
2022-10-30T04:56:44.742Z,4.20
2022-10-30T04:59:14.922Z,2.58
2022-10-30T05:01:45.249Z,2.53
2022-10-30T05:04:15.504Z,2.03
2022-10-30T05:06:45.733Z,2.53
2022-10-30T05:09:15.958Z,2.05
2022-10-30T05:11:46.194Z,4.72
2022-10-30T05:14:16.424Z,4.30
2022-10-30T05:16:46.682Z,2.28
2022-10-30T05:19:16.868Z,3.50
2022-10-30T05:21:47.094Z,3.20
2022-10-30T05:24:17.324Z,2.55
2022-10-30T05:26:47.937Z,2.58
2022-10-30T05:29:18.214Z,1.60
2022-10-30T05:31:48.444Z,2.83
2022-10-30T05:34:18.629Z,2.20
2022-10-30T05:36:48.844Z,3.67
2022-10-30T05:39:19.094Z,1.42
2022-10-30T05:41:49.230Z,2.35
2022-10-30T05:44:34.241Z,1.75
2022-10-30T05:47:09.626Z,2.10
2022-10-30T05:49:39.809Z,0.45
2022-10-30T05:52:09.934Z,1.30
2022-10-30T05:54:40.147Z,1.70
2022-10-30T05:57:10.317Z,0.70
2022-10-30T05:59:40.485Z,1.85
2022-10-30T06:02:10.732Z,2.40
2022-10-30T06:04:40.977Z,2.33
2022-10-30T06:07:12.288Z,2.67
2022-10-30T06:09:42.443Z,3.50
2022-10-30T06:12:12.563Z,1.65
2022-10-30T06:14:42.781Z,2.05
2022-10-30T06:17:13.033Z,1.08
2022-10-30T06:19:43.145Z,2.08
2022-10-30T06:22:13.345Z,3.60
2022-10-30T06:24:43.550Z,2.65
2022-10-30T06:27:13.751Z,1.90
2022-10-30T06:29:43.929Z,3.00
2022-10-30T06:32:14.122Z,2.42
2022-10-30T06:34:46.513Z,4.93
2022-10-30T06:37:16.825Z,3.08
2022-10-30T06:39:47.119Z,5.50
2022-10-30T06:42:17.274Z,5.28
2022-10-30T06:44:47.436Z,3.20
2022-10-30T06:47:18.462Z,4.18
2022-10-30T06:49:48.698Z,3.30
2022-10-30T06:52:20.992Z,1.27
2022-10-30T06:54:51.177Z,3.00
2022-10-30T06:57:21.410Z,1.50
2022-10-30T06:59:51.648Z,1.30
2022-10-30T07:02:22.018Z,1.55
2022-10-30T07:04:52.358Z,3.25
2022-10-30T07:07:22.490Z,2.70
2022-10-30T07:09:52.686Z,3.83
2022-10-30T07:12:22.923Z,4.35
2022-10-30T07:14:53.155Z,0.85
2022-10-30T07:17:23.288Z,5.32
2022-10-30T07:19:53.578Z,2.88
2022-10-30T07:22:23.716Z,7.10
2022-10-30T07:24:53.875Z,8.52
2022-10-30T07:27:24.535Z,7.82
2022-10-30T07:29:54.729Z,10.85
2022-10-30T07:32:24.937Z,3.70
2022-10-30T07:34:55.156Z,2.75
2022-10-30T07:37:25.310Z,3.78
2022-10-30T07:39:55.564Z,4.00
2022-10-30T07:42:25.811Z,4.60
2022-10-30T07:44:56.002Z,6.25
2022-10-30T07:47:26.234Z,3.33
2022-10-30T07:49:56.436Z,3.47
2022-10-30T07:52:26.644Z,3.83
2022-10-30T07:54:56.784Z,2.40
2022-10-30T07:57:26.994Z,3.40
2022-10-30T07:59:59.496Z,2.10
2022-10-30T08:02:33.414Z,3.97
2022-10-30T08:05:04.516Z,2.83
2022-10-30T08:07:39.324Z,2.13
2022-10-30T08:10:10.679Z,4.07
2022-10-30T08:12:42.236Z,5.10
2022-10-30T08:15:13.712Z,6.07
2022-10-30T08:17:51.854Z,3.78
2022-10-30T08:20:24.792Z,3.55
2022-10-30T08:22:57.337Z,3.70
2022-10-30T08:25:30.618Z,3.58
2022-10-30T08:28:09.236Z,3.53
2022-10-30T08:30:40.678Z,6.18
2022-10-30T08:33:15.358Z,2.42
2022-10-30T08:35:56.135Z,4.25
2022-10-30T08:38:32.176Z,3.33
2022-10-30T08:41:03.668Z,1.90
2022-10-30T08:43:33.950Z,3.72
2022-10-30T08:46:04.610Z,2.85
2022-10-30T08:48:34.760Z,4.63
2022-10-30T08:51:05.052Z,3.70
2022-10-30T08:53:35.217Z,1.73
2022-10-30T08:56:05.567Z,4.15
2022-10-30T08:58:35.766Z,2.60
2022-10-30T09:01:06.061Z,3.03
2022-10-30T09:03:36.296Z,5.72
2022-10-30T09:06:06.690Z,4.25
2022-10-30T09:08:37.005Z,5.43
2022-10-30T09:11:07.672Z,3.88
2022-10-30T09:13:38.621Z,8.20
2022-10-30T09:16:09.182Z,3.20
2022-10-30T09:18:39.761Z,3.65
2022-10-30T09:21:10.200Z,2.20
2022-10-30T09:23:40.725Z,4.00
2022-10-30T09:26:12.068Z,2.40
2022-10-30T09:28:43.667Z,2.22
2022-10-30T09:31:14.238Z,2.80
2022-10-30T09:33:44.370Z,4.20
2022-10-30T09:36:16.884Z,2.85
2022-10-30T09:38:49.911Z,3.67
2022-10-30T09:41:37.966Z,3.28
2022-10-30T09:44:26.345Z,5.93
2022-10-30T09:47:05.593Z,1.67
2022-10-30T09:49:38.812Z,2.45
2022-10-30T09:52:24.458Z,3.13
2022-10-30T09:55:27.130Z,1.85
2022-10-30T09:58:24.309Z,3.28
2022-10-30T10:01:09.634Z,3.20
2022-10-30T10:06:23.798Z,2.47
2022-10-30T10:09:06.819Z,4.45
2022-10-30T10:11:44.050Z,2.28
2022-10-30T10:14:22.448Z,1.33
2022-10-30T10:16:56.235Z,1.55
2022-10-30T10:19:40.824Z,2.55
2022-10-30T10:22:44.796Z,1.98
2022-10-30T10:25:21.299Z,1.17
2022-10-30T10:28:22.121Z,1.83
2022-10-30T10:30:55.153Z,1.52
2022-10-30T10:33:46.691Z,3.75
2022-10-30T10:36:41.995Z,2.75
2022-10-30T10:39:52.332Z,1.40
2022-10-30T10:42:43.364Z,1.60
2022-10-30T10:45:27.721Z,2.45
2022-10-30T10:48:00.956Z,1.65
2022-10-30T10:50:36.148Z,1.67
2022-10-30T10:53:24.010Z,1.90
2022-10-30T10:55:59.457Z,1.25
2022-10-30T10:58:51.059Z,1.38
2022-10-30T11:01:25.874Z,1.88
2022-10-30T11:04:37.090Z,2.72
2022-10-30T11:07:25.347Z,1.10
2022-10-30T11:09:56.991Z,1.40
2022-10-30T11:12:37.754Z,0.95
2022-10-30T11:15:48.622Z,2.15
2022-10-30T11:18:18.900Z,1.48
2022-10-30T11:21:07.184Z,1.00
2022-10-30T11:23:46.888Z,1.42
2022-10-30T11:26:23.310Z,3.58
2022-10-30T11:29:15.087Z,0.93
2022-10-30T11:31:47.773Z,1.33
2022-10-30T11:34:20.648Z,2.72
2022-10-30T11:36:52.938Z,1.60
2022-10-30T11:39:29.014Z,0.70
2022-10-30T11:42:10.034Z,5.68
2022-10-30T11:44:41.766Z,4.60
2022-10-30T11:47:14.412Z,1.48
2022-10-30T11:49:51.602Z,2.85
2022-10-30T11:52:25.763Z,1.80
2022-10-30T11:55:10.521Z,1.48
2022-10-30T11:57:45.920Z,1.48
2022-10-30T12:00:21.250Z,1.42
2022-10-30T12:02:54.205Z,2.70
2022-10-30T12:05:38.320Z,0.60
2022-10-30T12:08:12.111Z,0.88
2022-10-30T12:10:42.238Z,1.25
2022-10-30T12:13:22.538Z,1.15
2022-10-30T12:16:16.368Z,4.13
2022-10-30T12:18:59.975Z,1.30
2022-10-30T12:21:32.787Z,1.83
2022-10-30T12:24:08.750Z,2.33
2022-10-30T12:26:39.871Z,2.42
2022-10-30T12:29:21.658Z,1.17
2022-10-30T12:32:17.445Z,1.55
2022-10-30T12:35:06.213Z,1.38
2022-10-30T12:37:43.698Z,2.65
2022-10-30T12:40:37.452Z,1.65
2022-10-30T12:43:29.190Z,1.63
2022-10-30T12:46:29.276Z,1.35
2022-10-30T12:49:10.699Z,0.77
2022-10-30T12:52:03.329Z,2.53
2022-10-30T12:54:48.573Z,0.95
2022-10-30T12:57:30.975Z,0.80
2022-10-30T13:00:17.542Z,2.22
2022-10-30T13:03:00.861Z,2.20
2022-10-30T13:05:52.353Z,0.73
2022-10-30T13:08:50.950Z,1.38
2022-10-30T13:11:47.283Z,0.60
2022-10-30T13:14:24.380Z,0.98
2022-10-30T13:16:54.944Z,1.33
2022-10-30T13:19:26.289Z,0.95
2022-10-30T13:22:09.270Z,0.63
2022-10-30T13:24:47.383Z,0.90
2022-10-30T13:27:42.956Z,1.75
2022-10-30T13:30:17.672Z,0.20
2022-10-30T13:33:23.699Z,0.70
2022-10-30T13:36:09.770Z,1.02
2022-10-30T13:39:01.227Z,1.67
2022-10-30T13:41:56.089Z,0.40
2022-10-30T13:45:00.284Z,0.40
2022-10-30T13:47:40.297Z,1.05
2022-10-30T13:50:46.512Z,0.85
2022-10-30T13:53:27.095Z,0.35
2022-10-30T13:55:58.749Z,0.60
2022-10-30T13:58:49.715Z,0.20
2022-10-30T14:01:29.430Z,1.10
2022-10-30T14:04:25.922Z,0.75
2022-10-30T14:07:03.481Z,2.40
2022-10-30T14:10:11.357Z,0.68
2022-10-30T14:13:00.240Z,1.65
2022-10-30T14:15:33.689Z,0.30
2022-10-30T14:18:16.222Z,1.13
2022-10-30T14:20:57.836Z,1.13
2022-10-30T14:23:39.895Z,1.02
2022-10-30T14:26:12.917Z,0.60
2022-10-30T14:28:47.429Z,0.55
2022-10-30T14:31:21.397Z,0.40
2022-10-30T14:33:56.169Z,0.20
2022-10-30T14:36:37.248Z,1.33
2022-10-30T14:39:16.325Z,0.75
2022-10-30T14:42:13.839Z,1.52
2022-10-30T14:45:12.634Z,0.40
2022-10-30T14:47:54.703Z,1.95
2022-10-30T14:50:33.572Z,0.40
2022-10-30T14:53:41.957Z,1.00
2022-10-30T14:56:18.950Z,0.20
2022-10-30T14:59:12.898Z,2.40
2022-10-30T15:02:05.109Z,1.45
2022-10-30T15:04:50.776Z,1.08
2022-10-30T15:07:47.644Z,0.35
2022-10-30T15:10:35.694Z,0.75
2022-10-30T15:13:22.335Z,0.30
2022-10-30T15:16:04.208Z,0.40
2022-10-30T15:18:34.608Z,0.73
2022-10-30T15:21:10.171Z,0.45
2022-10-30T15:23:43.824Z,0.20
2022-10-30T15:26:24.351Z,0.70
2022-10-30T15:28:56.184Z,0.40
2022-10-30T15:31:31.301Z,0.57
2022-10-30T15:34:01.470Z,0.80
2022-10-30T15:36:43.332Z,1.00
2022-10-30T15:39:16.010Z,0.57
2022-10-30T15:42:02.131Z,0.40
2022-10-30T15:44:38.642Z,0.40
2022-10-30T15:47:20.980Z,0.28
2022-10-30T15:49:56.929Z,0.52
2022-10-30T15:52:29.567Z,0.45
2022-10-30T15:55:07.673Z,0.50
2022-10-30T15:58:03.549Z,0.43
2022-10-30T16:00:38.109Z,0.32
2022-10-30T16:03:14.439Z,0.77
2022-10-30T16:05:44.689Z,0.70
2022-10-30T16:08:23.866Z,0.20
2022-10-30T16:10:58.010Z,0.63
2022-10-30T16:13:34.673Z,0.10
2022-10-30T16:16:06.278Z,0.40
2022-10-30T16:18:39.945Z,0.40
2022-10-30T16:21:11.677Z,0.30
2022-10-30T16:23:44.443Z,0.75
2022-10-30T16:26:36.891Z,0.30
2022-10-30T16:29:18.801Z,1.33
2022-10-30T16:31:51.720Z,0.60
2022-10-30T16:34:36.939Z,0.30
2022-10-30T16:37:09.212Z,0.88
2022-10-30T16:39:40.609Z,0.68
2022-10-30T16:42:20.818Z,0.32
2022-10-30T16:44:51.214Z,0.30
2022-10-30T16:47:21.749Z,0.17
2022-10-30T16:50:01.299Z,0.70
2022-10-30T16:52:38.328Z,0.17
2022-10-30T16:55:31.997Z,0.57
2022-10-30T16:58:02.733Z,0.40
2022-10-30T17:00:36.445Z,0.20
2022-10-30T17:03:12.875Z,0.25
2022-10-30T17:05:45.437Z,0.28
2022-10-30T17:08:32.860Z,0.30
2022-10-30T17:11:04.608Z,0.60
2022-10-30T17:13:57.164Z,0.70
2022-10-30T17:16:31.986Z,0.80
2022-10-30T17:19:16.687Z,0.30
2022-10-30T17:21:47.628Z,0.25
2022-10-30T17:24:28.810Z,0.30
2022-10-30T17:27:01.701Z,0.30
2022-10-30T17:29:41.156Z,0.52
2022-10-30T17:32:44.298Z,0.40
2022-10-30T17:35:21.114Z,0.43
2022-10-30T17:37:51.492Z,0.73
2022-10-30T17:40:22.268Z,0.47
2022-10-30T17:42:52.521Z,0.20
2022-10-30T17:45:23.032Z,0.40
2022-10-30T17:47:53.326Z,0.32
2022-10-30T17:50:23.505Z,0.20
2022-10-30T17:52:53.929Z,0.32
2022-10-30T17:55:29.842Z,0.30
2022-10-30T17:58:00.096Z,1.23
2022-10-30T18:00:30.321Z,0.25
2022-10-30T18:03:00.974Z,0.20
2022-10-30T18:05:34.360Z,0.17
2022-10-30T18:08:05.659Z,0.35
2022-10-30T18:10:36.734Z,0.30
2022-10-30T18:13:06.954Z,0.77
2022-10-30T18:15:40.991Z,0.70
2022-10-30T18:18:11.214Z,0.30
2022-10-30T18:20:41.506Z,0.50
2022-10-30T18:23:46.597Z,0.30
2022-10-30T18:26:21.497Z,0.20
2022-10-30T18:28:52.308Z,0.60
2022-10-30T18:31:27.487Z,0.30
2022-10-30T18:33:57.694Z,0.32
2022-10-30T18:36:28.691Z,0.20
2022-10-30T18:38:59.940Z,0.30
2022-10-30T18:41:35.252Z,0.40
2022-10-30T18:44:06.136Z,0.30
2022-10-30T18:46:37.166Z,0.10
2022-10-30T18:49:07.329Z,0.10
2022-10-30T18:51:37.673Z,0.20
2022-10-30T18:54:18.028Z,0.30
2022-10-30T18:56:48.248Z,0.50
2022-10-30T18:59:18.453Z,0.40
2022-10-30T19:01:48.712Z,0.55
2022-10-30T19:04:22.086Z,0.40
2022-10-30T19:06:52.851Z,1.00
2022-10-30T19:09:23.058Z,2.08
2022-10-30T19:11:53.260Z,2.35
2022-10-30T19:14:23.731Z,1.75
2022-10-30T19:16:53.978Z,0.32
2022-10-30T19:19:24.133Z,2.85
2022-10-30T19:21:54.532Z,2.25
2022-10-30T19:24:24.705Z,0.20
2022-10-30T19:26:54.914Z,1.88
2022-10-30T19:29:25.202Z,0.20
2022-10-30T19:31:55.362Z,0.68
2022-10-30T19:34:26.169Z,0.20
2022-10-30T19:36:56.430Z,0.45
2022-10-30T19:39:26.836Z,1.58
2022-10-30T19:41:57.171Z,0.22
2022-10-30T19:44:27.310Z,0.50
2022-10-30T19:46:57.491Z,0.70
2022-10-30T19:49:27.686Z,0.35
2022-10-30T19:51:57.873Z,0.35
2022-10-30T19:54:28.113Z,0.20
2022-10-30T19:56:58.394Z,0.52
2022-10-30T19:59:28.621Z,0.30
2022-10-30T20:01:58.931Z,2.47
2022-10-30T20:04:29.159Z,0.98
2022-10-30T20:07:02.385Z,2.30
2022-10-30T20:09:33.671Z,1.98
2022-10-30T20:12:03.818Z,0.45
2022-10-30T20:14:33.977Z,0.50
2022-10-30T20:17:04.160Z,0.93
2022-10-30T20:19:34.411Z,1.90
2022-10-30T20:22:04.857Z,0.68
2022-10-30T20:24:35.109Z,2.15
2022-10-30T20:27:05.469Z,0.60
2022-10-30T20:29:38.449Z,0.20
2022-10-30T20:32:11.885Z,0.20
2022-10-30T20:34:42.010Z,0.38
2022-10-30T20:37:12.761Z,0.40
2022-10-30T20:39:43.034Z,1.17
2022-10-30T20:42:15.612Z,0.20
2022-10-30T20:44:45.821Z,0.52
2022-10-30T20:47:16.426Z,0.30
2022-10-30T20:49:46.618Z,0.43
2022-10-30T20:52:16.746Z,2.65
2022-10-30T20:54:47.000Z,0.38
2022-10-30T20:57:17.546Z,0.30
2022-10-30T20:59:47.803Z,0.47
2022-10-30T21:02:18.430Z,0.35
2022-10-30T21:04:48.826Z,0.32
2022-10-30T21:07:19.083Z,0.30
2022-10-30T21:09:49.272Z,0.50
2022-10-30T21:12:20.331Z,0.43
2022-10-30T21:14:50.683Z,0.25
2022-10-30T21:17:21.305Z,0.30
2022-10-30T21:19:51.721Z,0.22
2022-10-30T21:22:22.016Z,0.20
2022-10-30T21:24:52.504Z,0.88
2022-10-30T21:27:23.078Z,1.20
2022-10-30T21:29:53.252Z,1.67
2022-10-30T21:32:23.798Z,0.95
2022-10-30T21:34:54.029Z,1.27
2022-10-30T21:37:24.209Z,1.13
2022-10-30T21:39:54.336Z,2.28
2022-10-30T21:42:24.570Z,1.20
2022-10-30T21:44:54.767Z,1.05
2022-10-30T21:47:25.070Z,0.80
2022-10-30T21:49:55.209Z,1.45
2022-10-30T21:52:25.502Z,0.65
2022-10-30T21:54:55.674Z,1.05
2022-10-30T21:57:25.785Z,1.02
2022-10-30T21:59:58.686Z,1.10
2022-10-30T22:02:31.730Z,2.08
2022-10-30T22:05:01.876Z,0.68
2022-10-30T22:07:32.032Z,0.90
2022-10-30T22:10:02.198Z,1.10
2022-10-30T22:12:33.330Z,1.35
2022-10-30T22:15:03.492Z,1.50
2022-10-30T22:17:34.957Z,1.40
2022-10-30T22:20:06.241Z,1.02
2022-10-30T22:22:36.375Z,3.78
2022-10-30T22:25:06.681Z,4.53
2022-10-30T22:27:36.884Z,1.30
2022-10-30T22:30:07.411Z,1.23
2022-10-30T22:32:37.602Z,2.47
2022-10-30T22:35:08.227Z,2.17
2022-10-30T22:37:38.430Z,3.38
2022-10-30T22:40:09.082Z,1.75
2022-10-30T22:42:39.249Z,0.50
2022-10-30T22:45:10.193Z,2.97
2022-10-30T22:47:40.383Z,1.90
2022-10-30T22:50:10.981Z,0.98
2022-10-30T22:52:41.120Z,1.85
2022-10-30T22:55:11.631Z,1.20
2022-10-30T22:57:41.745Z,2.92
2022-10-30T23:00:16.712Z,3.45
2022-10-30T23:02:49.587Z,1.10
2022-10-30T23:05:20.000Z,0.45
2022-10-30T23:07:50.351Z,1.05
2022-10-30T23:10:20.702Z,1.90
2022-10-30T23:12:51.030Z,0.88
2022-10-30T23:15:21.406Z,0.98
2022-10-30T23:17:54.325Z,2.35
2022-10-30T23:20:24.602Z,0.75
2022-10-30T23:22:54.790Z,1.10
2022-10-30T23:25:25.045Z,0.40
2022-10-30T23:27:56.282Z,1.55
2022-10-30T23:30:26.582Z,0.40
2022-10-30T23:32:56.961Z,0.63
2022-10-30T23:35:27.232Z,0.75
2022-10-30T23:37:57.538Z,1.00
2022-10-30T23:40:27.793Z,0.38
2022-10-30T23:42:58.510Z,0.30
2022-10-30T23:45:29.033Z,1.63
2022-10-30T23:47:59.364Z,2.17
2022-10-30T23:50:29.611Z,0.57
2022-10-30T23:52:59.829Z,0.32
2022-10-30T23:55:30.138Z,0.20
2022-10-30T23:58:00.797Z,2.33
